Egmondgracht — PDWG — position and weather

sailwx.info

Track history (hours):
 
Tides and Currents Weather Stations Pressure Air Temp Water Temp Dewpoint Dewpoint Depression Visibility Wind Speed Wind Dir Waves Ship Positions

Egmondgracht

Last reported at 2017-Mar-09 23:10 UTC. Time now 2017-Mar-23 18:31 UTC.
Position N 55°30' E 016°40'.
Warning: this ship's position is 13 days out of date.

Length 136 m; beam 19 m; draft 9 m.

Type: Cargo ship. MMSI: 245716000.

Date/timePositionNaut miles runAvg speedWind from/ knotsBaromVisibWave heightAir tempDewpointWater temp
2017-Mar-09 23:10N 55°30' E 016°40'914.2
2017-Mar-09 22:33N 55°29' E 016°25'1914.1
2017-Mar-09 21:14N 55°28' E 015°52'1014.0
2017-Mar-09 20:33N 55°27' E 015°35'1414.1
2017-Mar-09 19:33N 55°25' E 015°11'1414.3
2017-Mar-09 18:33N 55°24' E 014°46'1413.6
2017-Mar-09 17:33N 55°15' E 014°28'1313.3
2017-Mar-09 16:33N 55°10' E 014°06'1414.1
2017-Mar-09 15:33N 55°12' E 013°42'1414.2
2017-Mar-09 14:33N 55°13' E 013°17'1414.2
2017-Mar-09 13:33N 55°15' E 012°52'1111.0
2017-Mar-09 12:33N 55°23' E 012°39'1313.4
2017-Mar-09 11:33N 55°36' E 012°42'1313.0
2017-Mar-09 10:33N 55°49' E 012°42'1312.9
2017-Mar-09 09:33N 56°02' E 012°38'1211.9
2017-Mar-09 08:33N 56°10' E 012°23'5713.2
2017-Mar-09 04:15N 57°02' E 011°40'1013.5
2017-Mar-09 03:32N 57°11' E 011°34'1313.6
2017-Mar-09 02:33N 57°24' E 011°27'1413.6
2017-Mar-09 01:33N 57°34' E 011°11'1414.2
2017-Mar-09 00:34N 57°44' E 010°51'1313.4
2017-Mar-08 23:33N 57°49' E 010°28'18914.1
2017-Mar-08 10:08N 55°31' E 006°34'1014.6
2017-Mar-08 09:29N 55°23' E 006°24'14714.8
2017-Mar-07 23:33N 53°11' E 004°31'1615.9
2017-Mar-07 22:33N 52°57' E 004°19'1615.3
2017-Mar-07 21:31N 52°43' E 004°06'1313.3
2017-Mar-07 20:33N 52°31' E 004°13'1313.3
2017-Mar-07 19:33N 52°28' E 004°34'1 0.6
2017-Mar-07 18:31N 52°28' E 004°35'0 0.0
2017-Mar-07 17:28N 52°28' E 004°35'0 0.0
2017-Mar-07 16:31N 52°28' E 004°35'0 0.0
2017-Mar-07 15:31N 52°28' E 004°35'0 0.0
2017-Mar-07 14:31N 52°28' E 004°35'0 0.0
2017-Mar-07 13:28N 52°28' E 004°35'0 0.0
2017-Mar-07 12:31N 52°28' E 004°35'0 0.0
2017-Mar-07 11:31N 52°28' E 004°35'0 0.0
2017-Mar-07 10:28N 52°28' E 004°35'0 0.0
2017-Mar-07 09:31N 52°28' E 004°35'0 0.0
2017-Mar-07 08:31N 52°28' E 004°35'0 0.0
2017-Mar-07 07:28N 52°28' E 004°35'0 0.0
2017-Mar-07 06:31N 52°28' E 004°35'0 0.0
2017-Mar-07 05:31N 52°28' E 004°35'0 0.0
2017-Mar-07 04:31N 52°28' E 004°35'0 0.0
2017-Mar-07 03:28N 52°28' E 004°35'0 0.0
2017-Mar-07 01:31N 52°28' E 004°35'0 0.0
2017-Mar-07 00:28N 52°28' E 004°35'0 0.0
2017-Mar-06 23:31N 52°28' E 004°35'0 0.0
2017-Mar-06 22:31N 52°28' E 004°35'0 0.0
2017-Mar-06 21:34N 52°28' E 004°35'0 0.0
2017-Mar-06 20:33N 52°28' E 004°35'0 0.0
2017-Mar-06 19:33N 52°28' E 004°35'0 0.0
2017-Mar-06 18:33N 52°28' E 004°35'0 0.0
2017-Mar-06 17:33N 52°28' E 004°35'0 0.0
2017-Mar-06 16:33N 52°28' E 004°35'0 0.0
2017-Mar-06 15:33N 52°28' E 004°35'0 0.0
2017-Mar-06 14:33N 52°28' E 004°35'0 0.0
2017-Mar-06 13:33N 52°28' E 004°35'0 0.0
2017-Mar-06 12:33N 52°28' E 004°35'0 0.0
2017-Mar-06 11:33N 52°28' E 004°35'0 0.0
2017-Mar-06 10:33N 52°28' E 004°35'0 0.0
2017-Mar-06 09:33N 52°28' E 004°35'0 0.0
2017-Mar-06 08:33N 52°28' E 004°35'0 0.2
2017-Mar-06 07:33N 52°28' E 004°35'8 8.4
2017-Mar-06 06:33N 52°29' E 004°21'8 8.0
2017-Mar-06 05:33N 52°29' E 004°08'6 5.3
2017-Mar-06 04:31N 52°26' E 004°00'0 0.0
2017-Mar-06 03:31N 52°26' E 004°00'0 0.0
2017-Mar-06 02:28N 52°26' E 003°60'0 0.1
2017-Mar-06 01:28N 52°26' E 004°00'0 0.1
2017-Mar-06 00:22N 52°26' E 004°00'0 0.0
2017-Mar-05 23:19N 52°26' E 004°00'0 0.0
2017-Mar-05 22:31N 52°26' E 004°00'0 0.0
2017-Mar-05 21:28N 52°26' E 004°00'0 0.0
2017-Mar-05 20:31N 52°26' E 004°00'0 0.0
2017-Mar-05 19:31N 52°26' E 004°00'0 0.0
2017-Mar-05 18:25N 52°26' E 004°00'0 0.0
2017-Mar-05 17:31N 52°26' E 004°00'0 0.0
2017-Mar-05 16:31N 52°26' E 004°00'0 0.1
2017-Mar-05 15:31N 52°26' E 004°00'0 0.1
2017-Mar-05 14:33N 52°26' E 003°60'0 0.0
2017-Mar-05 13:33N 52°26' E 003°60'0 0.0
2017-Mar-05 12:33N 52°26' E 004°00'0 0.1
2017-Mar-05 11:30N 52°26' E 004°00'0 0.0
2017-Mar-05 10:33N 52°26' E 004°00'0 0.0
2017-Mar-05 09:33N 52°26' E 004°00'0 0.0
2017-Mar-05 08:21N 52°26' E 004°00'0 0.0
2017-Mar-05 06:24N 52°26' E 004°00'0 0.1
2017-Mar-05 05:33N 52°26' E 004°00'0 0.0
2017-Mar-05 04:12N 52°26' E 004°00'0 0.2
2017-Mar-05 03:30N 52°26' E 004°00'0 0.1
2017-Mar-05 02:33N 52°26' E 004°00'0 0.0
2017-Mar-05 01:30N 52°26' E 004°00'0 0.1
2017-Mar-05 00:33N 52°26' E 003°60'0 0.2
2017-Mar-04 23:30N 52°26' E 004°00'0 0.0
2017-Mar-04 20:18N 52°26' E 004°00'0 0.0
2017-Mar-04 19:33N 52°26' E 004°00'0 0.0
2017-Mar-04 18:33N 52°26' E 004°00'0 0.0
2017-Mar-04 17:30N 52°26' E 004°00'0 0.0
2017-Mar-04 16:30N 52°26' E 004°00'0 0.1
2017-Mar-04 15:33N 52°26' E 004°00'0 0.1
2017-Mar-04 14:33N 52°26' E 004°00'0 0.0
2017-Mar-04 13:33N 52°26' E 004°00'0 0.0
2017-Mar-04 12:33N 52°26' E 003°60'5 5.1
2017-Mar-04 11:34N 52°26' E 003°52'7310.2
2017-Mar-04 04:25N 51°36' E 002°26'1012.0
2017-Mar-04 03:34N 51°29' E 002°15'1111.1
2017-Mar-04 02:33N 51°19' E 002°07'1111.0
2017-Mar-04 01:33N 51°11' E 001°55'1111.2
2017-Mar-04 00:33N 51°04' E 001°41'10 9.8
2017-Mar-03 23:33N 50°57' E 001°30'9 9.0
2017-Mar-03 22:33N 50°48' E 001°25'9 9.1
2017-Mar-03 21:33N 50°40' E 001°17'5410.8
2017-Mar-03 16:34N 50°19' E 000°00'1110.8
2017-Mar-03 15:34N 50°16' W 000°16'1111.3
2017-Mar-03 14:34N 50°14' W 000°33'1312.8
2017-Mar-03 13:34N 50°10' W 000°53'1514.5
2017-Mar-03 12:33N 50°07' W 001°15'1514.9
2017-Mar-03 11:33N 50°02' W 001°37'1615.9
2017-Mar-03 10:33N 49°59' W 002°01'  
Track history (hours):
 
Tides and Currents Weather Stations Pressure Air Temp Water Temp Dewpoint Dewpoint Depression Visibility Wind Speed Wind Dir Waves Ship Positions

Egmondgracht

Last reported at 2017-Mar-09 23:10 UTC. Time now 2017-Mar-23 18:31 UTC.
Position N 55°30' E 016°40'.
Warning: this ship's position is 13 days out of date.

Length 136 m; beam 19 m; draft 9 m.

Type: Cargo ship. MMSI: 245716000.

Date/timePositionNaut miles runAvg speedWind from/ knotsBaromVisibWave heightAir tempDewpointWater temp
2017-Mar-09 23:10N 55°30' E 016°40'914.2
2017-Mar-09 22:33N 55°29' E 016°25'1914.1
2017-Mar-09 21:14N 55°28' E 015°52'1014.0
2017-Mar-09 20:33N 55°27' E 015°35'1414.1
2017-Mar-09 19:33N 55°25' E 015°11'1414.3
2017-Mar-09 18:33N 55°24' E 014°46'1413.6
2017-Mar-09 17:33N 55°15' E 014°28'1313.3
2017-Mar-09 16:33N 55°10' E 014°06'1414.1
2017-Mar-09 15:33N 55°12' E 013°42'1414.2
2017-Mar-09 14:33N 55°13' E 013°17'1414.2
2017-Mar-09 13:33N 55°15' E 012°52'1111.0
2017-Mar-09 12:33N 55°23' E 012°39'1313.4
2017-Mar-09 11:33N 55°36' E 012°42'1313.0
2017-Mar-09 10:33N 55°49' E 012°42'1312.9
2017-Mar-09 09:33N 56°02' E 012°38'1211.9
2017-Mar-09 08:33N 56°10' E 012°23'5713.2
2017-Mar-09 04:15N 57°02' E 011°40'1013.5
2017-Mar-09 03:32N 57°11' E 011°34'1313.6
2017-Mar-09 02:33N 57°24' E 011°27'1413.6
2017-Mar-09 01:33N 57°34' E 011°11'1414.2
2017-Mar-09 00:34N 57°44' E 010°51'1313.4
2017-Mar-08 23:33N 57°49' E 010°28'18914.1
2017-Mar-08 10:08N 55°31' E 006°34'1014.6
2017-Mar-08 09:29N 55°23' E 006°24'14714.8
2017-Mar-07 23:33N 53°11' E 004°31'1615.9
2017-Mar-07 22:33N 52°57' E 004°19'1615.3
2017-Mar-07 21:31N 52°43' E 004°06'1313.3
2017-Mar-07 20:33N 52°31' E 004°13'1313.3
2017-Mar-07 19:33N 52°28' E 004°34'1 0.6
2017-Mar-07 18:31N 52°28' E 004°35'0 0.0
2017-Mar-07 17:28N 52°28' E 004°35'0 0.0
2017-Mar-07 16:31N 52°28' E 004°35'0 0.0
2017-Mar-07 15:31N 52°28' E 004°35'0 0.0
2017-Mar-07 14:31N 52°28' E 004°35'0 0.0
2017-Mar-07 13:28N 52°28' E 004°35'0 0.0
2017-Mar-07 12:31N 52°28' E 004°35'0 0.0
2017-Mar-07 11:31N 52°28' E 004°35'0 0.0
2017-Mar-07 10:28N 52°28' E 004°35'0 0.0
2017-Mar-07 09:31N 52°28' E 004°35'0 0.0
2017-Mar-07 08:31N 52°28' E 004°35'0 0.0
2017-Mar-07 07:28N 52°28' E 004°35'0 0.0
2017-Mar-07 06:31N 52°28' E 004°35'0 0.0
2017-Mar-07 05:31N 52°28' E 004°35'0 0.0
2017-Mar-07 04:31N 52°28' E 004°35'0 0.0
2017-Mar-07 03:28N 52°28' E 004°35'0 0.0
2017-Mar-07 01:31N 52°28' E 004°35'0 0.0
2017-Mar-07 00:28N 52°28' E 004°35'0 0.0
2017-Mar-06 23:31N 52°28' E 004°35'0 0.0
2017-Mar-06 22:31N 52°28' E 004°35'0 0.0
2017-Mar-06 21:34N 52°28' E 004°35'0 0.0
2017-Mar-06 20:33N 52°28' E 004°35'0 0.0
2017-Mar-06 19:33N 52°28' E 004°35'0 0.0
2017-Mar-06 18:33N 52°28' E 004°35'0 0.0
2017-Mar-06 17:33N 52°28' E 004°35'0 0.0
2017-Mar-06 16:33N 52°28' E 004°35'0 0.0
2017-Mar-06 15:33N 52°28' E 004°35'0 0.0
2017-Mar-06 14:33N 52°28' E 004°35'0 0.0
2017-Mar-06 13:33N 52°28' E 004°35'0 0.0
2017-Mar-06 12:33N 52°28' E 004°35'0 0.0
2017-Mar-06 11:33N 52°28' E 004°35'0 0.0
2017-Mar-06 10:33N 52°28' E 004°35'0 0.0
2017-Mar-06 09:33N 52°28' E 004°35'0 0.0
2017-Mar-06 08:33N 52°28' E 004°35'0 0.2
2017-Mar-06 07:33N 52°28' E 004°35'8 8.4
2017-Mar-06 06:33N 52°29' E 004°21'8 8.0
2017-Mar-06 05:33N 52°29' E 004°08'6 5.3
2017-Mar-06 04:31N 52°26' E 004°00'0 0.0
2017-Mar-06 03:31N 52°26' E 004°00'0 0.0
2017-Mar-06 02:28N 52°26' E 003°60'0 0.1
2017-Mar-06 01:28N 52°26' E 004°00'0 0.1
2017-Mar-06 00:22N 52°26' E 004°00'0 0.0
2017-Mar-05 23:19N 52°26' E 004°00'0 0.0
2017-Mar-05 22:31N 52°26' E 004°00'0 0.0
2017-Mar-05 21:28N 52°26' E 004°00'0 0.0
2017-Mar-05 20:31N 52°26' E 004°00'0 0.0
2017-Mar-05 19:31N 52°26' E 004°00'0 0.0
2017-Mar-05 18:25N 52°26' E 004°00'0 0.0
2017-Mar-05 17:31N 52°26' E 004°00'0 0.0
2017-Mar-05 16:31N 52°26' E 004°00'0 0.1
2017-Mar-05 15:31N 52°26' E 004°00'0 0.1
2017-Mar-05 14:33N 52°26' E 003°60'0 0.0
2017-Mar-05 13:33N 52°26' E 003°60'0 0.0
2017-Mar-05 12:33N 52°26' E 004°00'0 0.1
2017-Mar-05 11:30N 52°26' E 004°00'0 0.0
2017-Mar-05 10:33N 52°26' E 004°00'0 0.0
2017-Mar-05 09:33N 52°26' E 004°00'0 0.0
2017-Mar-05 08:21N 52°26' E 004°00'0 0.0
2017-Mar-05 06:24N 52°26' E 004°00'0 0.1
2017-Mar-05 05:33N 52°26' E 004°00'0 0.0
2017-Mar-05 04:12N 52°26' E 004°00'0 0.2
2017-Mar-05 03:30N 52°26' E 004°00'0 0.1
2017-Mar-05 02:33N 52°26' E 004°00'0 0.0
2017-Mar-05 01:30N 52°26' E 004°00'0 0.1
2017-Mar-05 00:33N 52°26' E 003°60'0 0.2
2017-Mar-04 23:30N 52°26' E 004°00'0 0.0
2017-Mar-04 20:18N 52°26' E 004°00'0 0.0
2017-Mar-04 19:33N 52°26' E 004°00'0 0.0
2017-Mar-04 18:33N 52°26' E 004°00'0 0.0
2017-Mar-04 17:30N 52°26' E 004°00'0 0.0
2017-Mar-04 16:30N 52°26' E 004°00'0 0.1
2017-Mar-04 15:33N 52°26' E 004°00'0 0.1
2017-Mar-04 14:33N 52°26' E 004°00'0 0.0
2017-Mar-04 13:33N 52°26' E 004°00'0 0.0
2017-Mar-04 12:33N 52°26' E 003°60'5 5.1
2017-Mar-04 11:34N 52°26' E 003°52'7310.2
2017-Mar-04 04:25N 51°36' E 002°26'1012.0
2017-Mar-04 03:34N 51°29' E 002°15'1111.1
2017-Mar-04 02:33N 51°19' E 002°07'1111.0
2017-Mar-04 01:33N 51°11' E 001°55'1111.2
2017-Mar-04 00:33N 51°04' E 001°41'10 9.8
2017-Mar-03 23:33N 50°57' E 001°30'9 9.0
2017-Mar-03 22:33N 50°48' E 001°25'9 9.1
2017-Mar-03 21:33N 50°40' E 001°17'5410.8
2017-Mar-03 16:34N 50°19' E 000°00'1110.8
2017-Mar-03 15:34N 50°16' W 000°16'1111.3
2017-Mar-03 14:34N 50°14' W 000°33'1312.8
2017-Mar-03 13:34N 50°10' W 000°53'1514.5
2017-Mar-03 12:33N 50°07' W 001°15'1514.9
2017-Mar-03 11:33N 50°02' W 001°37'1615.9
2017-Mar-03 10:33N 49°59' W 002°01'  

Dump ship's entire track history